createdAt,value
2018-07-26T00:00:43.792Z,99942.25
2018-07-26T00:03:14.606Z,99950.05
2018-07-26T00:05:45.466Z,99946.27
2018-07-26T00:08:16.498Z,99947.71
2018-07-26T00:10:47.448Z,99946.36
2018-07-26T00:13:18.495Z,99942.13
2018-07-26T00:15:49.469Z,99949.03
2018-07-26T00:18:20.511Z,99939.59
2018-07-26T00:20:51.473Z,99944.65
2018-07-26T00:23:22.537Z,99941.94
2018-07-26T00:25:53.468Z,99950.23
2018-07-26T00:28:24.477Z,99951.14
2018-07-26T00:30:55.466Z,99953.33
2018-07-26T00:33:26.467Z,99952.38
2018-07-26T00:35:57.650Z,99959.30
2018-07-26T00:38:28.537Z,99960.01
2018-07-26T00:40:59.478Z,99969.61
2018-07-26T00:43:30.493Z,99959.84
2018-07-26T00:46:01.499Z,99961.50
2018-07-26T00:48:32.441Z,99967.13
2018-07-26T00:51:03.457Z,99968.72
2018-07-26T00:53:34.463Z,99968.09
2018-07-26T00:56:05.468Z,99968.04
2018-07-26T00:58:36.481Z,99964.41
2018-07-26T01:01:07.437Z,99968.56
2018-07-26T01:03:38.482Z,99966.69
2018-07-26T01:06:09.694Z,99967.30
2018-07-26T01:08:40.555Z,99968.47
2018-07-26T01:11:11.469Z,99971.36
2018-07-26T01:13:42.452Z,99963.75
2018-07-26T01:16:13.478Z,99966.00
2018-07-26T01:18:44.481Z,99962.27
2018-07-26T01:21:15.458Z,99963.62
2018-07-26T01:23:46.463Z,99965.92
2018-07-26T01:26:17.573Z,99965.72
2018-07-26T01:28:48.468Z,99957.43
2018-07-26T01:31:19.490Z,99958.95
2018-07-26T01:33:50.462Z,99956.53
2018-07-26T01:36:21.415Z,99955.92
2018-07-26T01:38:52.490Z,99956.85
2018-07-26T01:41:23.525Z,99954.66
2018-07-26T01:44:16.471Z,99962.41
2018-07-26T01:46:47.475Z,99953.97
2018-07-26T01:49:18.801Z,99959.75
2018-07-26T01:51:49.561Z,99955.92
2018-07-26T01:54:20.488Z,99951.96
2018-07-26T01:56:51.444Z,99957.89
2018-07-26T01:59:22.485Z,99954.72
2018-07-26T02:01:53.469Z,99955.79
2018-07-26T02:04:24.486Z,99951.35
2018-07-26T02:06:55.477Z,99951.59
2018-07-26T02:09:26.470Z,99951.50
2018-07-26T02:11:57.481Z,99950.38
2018-07-26T02:14:34.622Z,99954.90
2018-07-26T02:17:05.529Z,99944.08
2018-07-26T02:19:36.508Z,99948.88
2018-07-26T02:22:07.472Z,99951.44
2018-07-26T02:24:38.461Z,99946.23
2018-07-26T02:27:09.472Z,99953.45
2018-07-26T02:29:40.488Z,99949.78
2018-07-26T02:32:11.523Z,99946.78
2018-07-26T02:34:42.499Z,99940.83
2018-07-26T02:37:13.497Z,99944.22
2018-07-26T02:39:44.491Z,99942.50
2018-07-26T02:42:15.485Z,99943.10
2018-07-26T02:44:46.480Z,99942.55
2018-07-26T02:47:17.461Z,99946.61
2018-07-26T02:49:48.486Z,99951.64
2018-07-26T02:52:19.481Z,99946.38
2018-07-26T02:54:50.472Z,99946.47
2018-07-26T02:57:21.722Z,99949.69
2018-07-26T02:59:52.567Z,99950.66
2018-07-26T03:02:23.485Z,99946.98
2018-07-26T03:04:54.704Z,99947.95
2018-07-26T03:07:25.596Z,99955.63
2018-07-26T03:09:56.488Z,99956.75
2018-07-26T03:12:27.554Z,99955.40
2018-07-26T03:14:58.476Z,99957.78
2018-07-26T03:17:29.494Z,99958.53
2018-07-26T03:20:00.457Z,99960.82
2018-07-26T03:22:31.550Z,99963.14
2018-07-26T03:25:02.511Z,99959.16
2018-07-26T03:27:33.495Z,99963.50
2018-07-26T03:30:04.525Z,99961.55
2018-07-26T03:32:35.456Z,99968.30
2018-07-26T03:35:06.472Z,99971.59
2018-07-26T03:37:37.453Z,99975.72
2018-07-26T03:40:08.681Z,99967.16
2018-07-26T03:42:39.461Z,99967.84
2018-07-26T03:45:10.484Z,99972.34
2018-07-26T03:47:41.484Z,99968.48
2018-07-26T03:50:12.470Z,99979.36
2018-07-26T03:52:43.492Z,99977.55
2018-07-26T03:55:14.481Z,99981.00
2018-07-26T03:57:45.488Z,99983.41
2018-07-26T04:00:16.488Z,99986.63
2018-07-26T04:02:47.468Z,99991.52
2018-07-26T04:05:18.641Z,99992.77
2018-07-26T04:07:49.449Z,99990.58
2018-07-26T04:10:20.441Z,99994.34
2018-07-26T04:12:51.445Z,99995.05
2018-07-26T04:15:22.472Z,99991.61
2018-07-26T04:17:58.349Z,100010.73
2018-07-26T04:20:29.417Z,100011.55
2018-07-26T04:23:00.476Z,100008.55
2018-07-26T04:25:32.238Z,100005.30
2018-07-26T04:28:03.532Z,100012.56
2018-07-26T04:30:34.477Z,100006.46
2018-07-26T04:33:05.468Z,100007.38
2018-07-26T04:35:36.481Z,100011.77
2018-07-26T04:38:07.424Z,100018.27
2018-07-26T04:40:38.460Z,100019.41
2018-07-26T04:43:09.472Z,100017.43
2018-07-26T04:45:40.495Z,100018.95
2018-07-26T04:48:11.440Z,100014.12
2018-07-26T04:50:42.444Z,100008.72
2018-07-26T04:53:13.426Z,100007.11
2018-07-26T04:55:44.461Z,100009.63
2018-07-26T04:58:15.461Z,100019.94
2018-07-26T05:00:46.479Z,100020.33
2018-07-26T05:03:17.474Z,100024.64
2018-07-26T05:05:48.506Z,100019.63
2018-07-26T05:08:19.461Z,100028.27
2018-07-26T05:10:50.557Z,100026.00
2018-07-26T05:13:21.482Z,100024.16
2018-07-26T05:15:52.465Z,100029.17
2018-07-26T05:18:23.427Z,100026.54
2018-07-26T05:20:54.517Z,100031.97
2018-07-26T05:23:25.518Z,100031.30
2018-07-26T05:25:56.484Z,100027.37
2018-07-26T05:28:27.466Z,100032.50
2018-07-26T05:30:58.496Z,100031.83
2018-07-26T05:33:29.461Z,100039.07
2018-07-26T05:36:00.463Z,100038.30
2018-07-26T05:38:31.462Z,100039.02
2018-07-26T05:41:02.478Z,100034.98
2018-07-26T05:43:33.479Z,100037.64
2018-07-26T05:46:04.513Z,100038.04
2018-07-26T05:48:35.487Z,100039.79
2018-07-26T05:51:06.490Z,100042.85
2018-07-26T05:53:37.454Z,100041.03
2018-07-26T05:56:08.508Z,100041.55
2018-07-26T05:58:39.496Z,100037.72
2018-07-26T06:01:10.520Z,100036.69
2018-07-26T06:03:41.612Z,100043.89
2018-07-26T06:06:12.548Z,100038.61
2018-07-26T06:08:43.517Z,100044.91
2018-07-26T06:11:14.765Z,100055.46
2018-07-26T06:13:45.549Z,100058.91
2018-07-26T06:16:16.496Z,100054.36
2018-07-26T06:18:48.030Z,100057.58
2018-07-26T06:21:19.285Z,100064.75
2018-07-26T06:23:50.515Z,100054.89
2018-07-26T06:26:21.473Z,100055.94
2018-07-26T06:28:52.482Z,100057.81
2018-07-26T06:31:23.510Z,100053.98
2018-07-26T06:33:54.637Z,100058.88
2018-07-26T06:36:25.532Z,100053.38
2018-07-26T06:38:56.448Z,100062.70
2018-07-26T06:41:27.514Z,100054.92
2018-07-26T06:43:58.447Z,100057.29
2018-07-26T06:46:29.499Z,100051.61
2018-07-26T06:49:00.474Z,100055.47
2018-07-26T06:51:31.472Z,100056.03
2018-07-26T06:54:02.462Z,100062.08
2018-07-26T06:56:33.493Z,100064.09
2018-07-26T06:59:04.498Z,100072.17
2018-07-26T07:01:35.469Z,100063.06
2018-07-26T07:04:06.470Z,100067.09
2018-07-26T07:06:37.474Z,100065.30
2018-07-26T07:09:12.010Z,100068.52
2018-07-26T07:11:43.509Z,100061.43
2018-07-26T07:14:14.532Z,100067.81
2018-07-26T07:16:45.476Z,100077.70
2018-07-26T07:19:16.481Z,100067.52
2018-07-26T07:21:47.452Z,100065.09
2018-07-26T07:24:22.666Z,100067.29
2018-07-26T07:26:54.385Z,100067.29
2018-07-26T07:29:25.514Z,100067.29
2018-07-26T07:31:56.478Z,100063.41
2018-07-26T07:34:27.413Z,100064.75
2018-07-26T07:36:59.297Z,100058.27
2018-07-26T07:39:30.350Z,100057.01
2018-07-26T07:42:01.353Z,100056.56
2018-07-26T07:44:32.415Z,100057.73
2018-07-26T07:47:03.519Z,100055.26
2018-07-26T07:49:34.474Z,100060.14
2018-07-26T07:52:05.289Z,100053.23
2018-07-26T07:54:36.342Z,100053.23
2018-07-26T07:57:07.620Z,100050.31
2018-07-26T07:59:38.578Z,100053.36
2018-07-26T08:02:09.476Z,100048.09
2018-07-26T08:04:40.458Z,100049.30
2018-07-26T08:07:11.457Z,100049.69
2018-07-26T08:09:42.454Z,100048.05
2018-07-26T08:12:13.476Z,100042.16
2018-07-26T08:14:44.760Z,100041.51
2018-07-26T08:17:15.552Z,100042.47
2018-07-26T08:19:46.448Z,100048.07
2018-07-26T08:22:17.449Z,100042.52
2018-07-26T08:24:49.440Z,100039.64
2018-07-26T08:27:20.510Z,100035.50
2018-07-26T08:29:51.557Z,100042.97
2018-07-26T08:32:22.488Z,100048.20
2018-07-26T08:34:53.641Z,100044.26
2018-07-26T08:37:24.497Z,100042.66
2018-07-26T08:39:55.469Z,100041.94
2018-07-26T08:42:26.497Z,100043.04
2018-07-26T08:44:57.441Z,100042.38
2018-07-26T08:47:28.508Z,100039.91
2018-07-26T08:49:59.480Z,100034.64
2018-07-26T08:52:30.444Z,100032.05
2018-07-26T08:55:01.417Z,100029.86
2018-07-26T08:57:32.471Z,100030.95
2018-07-26T09:00:03.450Z,100029.83
2018-07-26T09:02:34.510Z,100029.73
2018-07-26T09:05:05.735Z,100023.78
2018-07-26T09:07:36.608Z,100021.83
2018-07-26T09:10:07.484Z,100018.22
2018-07-26T09:12:38.469Z,100010.86
2018-07-26T09:15:09.417Z,100013.00
2018-07-26T09:17:40.478Z,100021.19
2018-07-26T09:20:11.498Z,100013.83
2018-07-26T09:22:42.514Z,100013.77
2018-07-26T09:25:13.503Z,100011.09
2018-07-26T09:27:44.475Z,100012.28
2018-07-26T09:30:15.465Z,100010.69
2018-07-26T09:32:46.486Z,100009.78
2018-07-26T09:35:17.458Z,100007.70
2018-07-26T09:37:48.502Z,100013.76
2018-07-26T09:40:19.492Z,100014.05
2018-07-26T09:42:50.501Z,100009.40
2018-07-26T09:45:21.518Z,100012.88
2018-07-26T09:47:52.535Z,100001.62
2018-07-26T09:50:23.493Z,100012.89
2018-07-26T09:52:54.467Z,100000.74
2018-07-26T09:55:25.474Z,100002.32
2018-07-26T09:57:56.627Z,99992.27
2018-07-26T10:00:32.637Z,99991.06
2018-07-26T10:03:03.892Z,99999.05
2018-07-26T10:05:34.679Z,99999.91
2018-07-26T10:08:05.601Z,99986.85
2018-07-26T10:10:36.465Z,99991.06
2018-07-26T10:13:07.465Z,99980.28
2018-07-26T10:15:38.453Z,99986.87
2018-07-26T10:18:09.441Z,99984.95
2018-07-26T10:20:40.481Z,99983.56
2018-07-26T10:23:11.494Z,99979.69
2018-07-26T10:25:42.485Z,99975.05
2018-07-26T10:28:13.541Z,99975.66
2018-07-26T10:30:44.531Z,99977.69
2018-07-26T10:33:15.464Z,99967.09
2018-07-26T10:35:46.457Z,99970.42
2018-07-26T10:38:17.464Z,99969.70
2018-07-26T10:40:48.518Z,99974.50
2018-07-26T10:43:19.512Z,99970.33
2018-07-26T10:45:50.478Z,99963.23
2018-07-26T10:48:21.505Z,99963.59
2018-07-26T10:50:52.497Z,99959.10
2018-07-26T10:53:23.450Z,99963.37
2018-07-26T10:55:54.468Z,99959.34
2018-07-26T10:58:25.503Z,99951.63
2018-07-26T11:00:56.471Z,99952.63
2018-07-26T11:03:27.538Z,99949.11
2018-07-26T11:05:58.466Z,99949.95
2018-07-26T11:08:29.489Z,99942.81
2018-07-26T11:11:00.530Z,99945.77
2018-07-26T11:13:31.465Z,99948.11
2018-07-26T11:16:02.497Z,99943.84
2018-07-26T11:18:33.448Z,99943.20
2018-07-26T11:21:04.460Z,99936.88
2018-07-26T11:23:35.457Z,99941.05
2018-07-26T11:26:06.488Z,99937.05
2018-07-26T11:28:37.485Z,99934.01
2018-07-26T11:31:08.587Z,99936.39
2018-07-26T11:33:39.476Z,99931.89
2018-07-26T11:36:10.401Z,99928.53
2018-07-26T11:38:41.406Z,99923.30
2018-07-26T11:41:12.433Z,99921.45
2018-07-26T11:43:43.517Z,99923.80
2018-07-26T11:46:14.463Z,99915.52
2018-07-26T11:48:45.443Z,99917.41
2018-07-26T11:51:16.467Z,99915.55
2018-07-26T11:53:47.525Z,99913.18
2018-07-26T11:56:18.843Z,99912.77
2018-07-26T11:58:49.286Z,99908.91
2018-07-26T12:01:20.373Z,99911.95
2018-07-26T12:03:51.407Z,99901.95
2018-07-26T12:06:22.422Z,99903.38
2018-07-26T12:08:53.541Z,99904.95
2018-07-26T12:11:24.475Z,99901.20
2018-07-26T12:13:55.485Z,99880.78
2018-07-26T12:16:26.471Z,99890.31
2018-07-26T12:18:57.823Z,99886.72
2018-07-26T12:21:28.280Z,99892.39
2018-07-26T12:23:59.369Z,99894.11
2018-07-26T12:26:30.464Z,99887.90
2018-07-26T12:29:01.494Z,99874.38
2018-07-26T12:31:32.479Z,99886.28
2018-07-26T12:34:03.458Z,99877.30
2018-07-26T12:36:34.466Z,99877.30
2018-07-26T12:39:09.204Z,99876.08
2018-07-26T12:41:40.394Z,99864.87
2018-07-26T12:44:11.476Z,99876.76
2018-07-26T12:46:42.465Z,99871.13
2018-07-26T12:49:13.465Z,99869.34
2018-07-26T12:51:44.505Z,99865.51
2018-07-26T12:54:15.506Z,99861.42
2018-07-26T12:56:46.460Z,99858.73
2018-07-26T12:59:17.496Z,99854.84
2018-07-26T13:01:48.565Z,99863.91
2018-07-26T13:04:19.511Z,99856.27
2018-07-26T13:06:50.510Z,99860.22
2018-07-26T13:09:21.480Z,99853.63
2018-07-26T13:11:52.497Z,99839.22
2018-07-26T13:14:23.469Z,99835.81
2018-07-26T13:16:54.449Z,99831.42
2018-07-26T13:19:25.510Z,99834.71
2018-07-26T13:21:56.486Z,99829.58
2018-07-26T13:24:27.817Z,99825.45
2018-07-26T13:26:58.284Z,99836.64
2018-07-26T13:29:29.397Z,99824.47
2018-07-26T13:32:00.546Z,99823.09
2018-07-26T13:34:31.484Z,99815.19
2018-07-26T13:37:02.458Z,99803.45
2018-07-26T13:39:33.496Z,99818.53
2018-07-26T13:42:04.502Z,99816.71
2018-07-26T13:44:35.482Z,99819.53
2018-07-26T13:47:06.630Z,99810.47
2018-07-26T13:49:37.504Z,99813.09
2018-07-26T13:52:09.202Z,99800.31
2018-07-26T13:54:40.368Z,99798.19
2018-07-26T13:57:11.382Z,99797.68
2018-07-26T13:59:42.470Z,99797.01
2018-07-26T14:02:13.497Z,99796.15
2018-07-26T14:04:44.489Z,99792.95
2018-07-26T14:07:15.482Z,99779.55
2018-07-26T14:09:46.504Z,99791.92
2018-07-26T14:12:17.492Z,99788.23
2018-07-26T14:14:48.461Z,99789.76
2018-07-26T14:17:19.475Z,99786.00
2018-07-26T14:19:50.460Z,99786.19
2018-07-26T14:22:21.491Z,99789.00
2018-07-26T14:24:53.296Z,99777.78
2018-07-26T14:27:24.525Z,99782.74
2018-07-26T14:29:55.482Z,99777.31
2018-07-26T14:32:26.500Z,99774.56
2018-07-26T14:34:57.496Z,99776.89
2018-07-26T14:37:28.520Z,99771.13
2018-07-26T14:39:59.472Z,99769.08
2018-07-26T14:42:30.506Z,99755.79
2018-07-26T14:45:01.510Z,99764.19
2018-07-26T14:47:33.353Z,99757.94
2018-07-26T14:50:04.377Z,99753.82
2018-07-26T14:52:35.365Z,99748.34
2018-07-26T14:55:06.406Z,99746.82
2018-07-26T14:57:37.521Z,99745.95
2018-07-26T15:00:08.507Z,99744.91
2018-07-26T15:02:39.553Z,99753.52
2018-07-26T15:05:10.546Z,99746.23
2018-07-26T15:07:41.517Z,99745.46
2018-07-26T15:10:12.487Z,99749.66
2018-07-26T15:12:43.562Z,99739.44
2018-07-26T15:15:14.472Z,99731.55
2018-07-26T15:17:45.485Z,99730.17
2018-07-26T15:20:16.508Z,99737.28
2018-07-26T15:22:47.566Z,99737.22
2018-07-26T15:25:23.696Z,99740.52
2018-07-26T15:27:56.300Z,99731.50
2018-07-26T15:30:27.386Z,99739.28
2018-07-26T15:32:58.532Z,99739.36
2018-07-26T15:35:29.474Z,99732.00
2018-07-26T15:38:00.810Z,99732.08
2018-07-26T15:40:31.239Z,99735.52
2018-07-26T15:43:02.361Z,99726.80
2018-07-26T15:45:33.360Z,99738.05
2018-07-26T15:48:04.882Z,99733.77
2018-07-26T15:50:36.249Z,99740.88
2018-07-26T15:53:07.410Z,99730.34
2018-07-26T15:55:38.589Z,99737.13
2018-07-26T15:58:09.526Z,99734.93
2018-07-26T16:00:40.506Z,99743.30
2018-07-26T16:03:11.513Z,99745.66
2018-07-26T16:05:42.508Z,99748.94
2018-07-26T16:08:13.678Z,99742.41
2018-07-26T16:10:44.578Z,99742.79
2018-07-26T16:13:15.497Z,99748.30
2018-07-26T16:15:46.501Z,99742.47
2018-07-26T16:18:17.510Z,99748.41
2018-07-26T16:20:48.523Z,99748.36
2018-07-26T16:23:19.526Z,99732.86
2018-07-26T16:25:50.488Z,99740.12
2018-07-26T16:28:21.468Z,99736.80
2018-07-26T16:30:52.492Z,99739.97
2018-07-26T16:33:23.451Z,99735.75
2018-07-26T16:35:54.509Z,99731.31
2018-07-26T16:38:25.474Z,99738.58
2018-07-26T16:40:56.489Z,99736.24
2018-07-26T16:43:27.485Z,99736.30
2018-07-26T16:45:58.506Z,99737.22
2018-07-26T16:48:29.485Z,99733.56
2018-07-26T16:51:00.542Z,99734.45
2018-07-26T16:53:31.497Z,99727.78
2018-07-26T16:56:02.508Z,99731.48
2018-07-26T16:58:33.656Z,99724.34
2018-07-26T17:01:04.553Z,99728.36
2018-07-26T17:03:35.499Z,99730.12
2018-07-26T17:06:06.688Z,99732.86
2018-07-26T17:08:37.690Z,99733.72
2018-07-26T17:11:09.337Z,99732.34
2018-07-26T17:13:40.370Z,99732.52
2018-07-26T17:16:11.387Z,99730.27
2018-07-26T17:18:42.502Z,99735.53
2018-07-26T17:21:13.501Z,99735.63
2018-07-26T17:23:44.510Z,99731.80
2018-07-26T17:26:15.518Z,99742.18
2018-07-26T17:28:46.501Z,99742.95
2018-07-26T17:31:17.523Z,99738.30
2018-07-26T17:33:48.492Z,99741.64
2018-07-26T17:36:19.554Z,99744.88
2018-07-26T17:38:50.545Z,99740.63
2018-07-26T17:41:21.525Z,99749.18
2018-07-26T17:43:52.598Z,99753.87
2018-07-26T17:46:23.505Z,99752.26
2018-07-26T17:48:54.534Z,99750.13
2018-07-26T17:51:25.516Z,99753.98
2018-07-26T17:53:56.484Z,99763.89
2018-07-26T17:56:27.484Z,99754.59
2018-07-26T17:58:58.497Z,99759.25
2018-07-26T18:01:29.501Z,99758.56
2018-07-26T18:04:00.477Z,99754.70
2018-07-26T18:06:31.486Z,99763.84
2018-07-26T18:09:02.632Z,99765.25
2018-07-26T18:11:33.549Z,99760.64
2018-07-26T18:14:04.513Z,99766.38
2018-07-26T18:16:35.502Z,99769.98
2018-07-26T18:19:06.618Z,99766.20
2018-07-26T18:21:37.521Z,99773.36
2018-07-26T18:24:08.694Z,99773.90
2018-07-26T18:26:39.517Z,99775.58
2018-07-26T18:29:10.521Z,99776.44
2018-07-26T18:31:41.668Z,99774.78
2018-07-26T18:34:12.481Z,99774.80
2018-07-26T18:36:43.586Z,99779.75
2018-07-26T18:39:14.531Z,99782.77
2018-07-26T18:41:45.518Z,99792.09
2018-07-26T18:44:16.494Z,99793.48
2018-07-26T18:46:47.506Z,99791.86
2018-07-26T18:49:18.496Z,99792.69
2018-07-26T18:51:49.493Z,99791.30
2018-07-26T18:54:20.481Z,99792.92
2018-07-26T18:56:51.505Z,99799.50
2018-07-26T18:59:22.487Z,99795.95
2018-07-26T19:01:53.539Z,99802.23
2018-07-26T19:04:24.609Z,99805.22
2018-07-26T19:06:55.501Z,99811.77
2018-07-26T19:09:26.522Z,99804.68
2018-07-26T19:11:57.578Z,99807.10
2018-07-26T19:14:28.554Z,99815.52
2018-07-26T19:16:59.515Z,99812.23
2018-07-26T19:19:30.504Z,99812.23
2018-07-26T19:22:01.459Z,99820.14
2018-07-26T19:24:32.456Z,99825.83
2018-07-26T19:27:03.812Z,99830.20
2018-07-26T19:29:34.665Z,99825.79
2018-07-26T19:32:05.566Z,99834.78
2018-07-26T19:34:36.497Z,99838.02
2018-07-26T19:37:07.481Z,99843.47
2018-07-26T19:39:38.498Z,99845.62
2018-07-26T19:42:09.546Z,99846.39
2018-07-26T19:44:40.479Z,99843.90
2018-07-26T19:47:11.501Z,99842.27
2018-07-26T19:49:42.565Z,99845.80
2018-07-26T19:52:13.574Z,99848.20
2018-07-26T19:54:44.548Z,99850.63
2018-07-26T19:57:15.534Z,99856.36
2018-07-26T19:59:46.500Z,99849.48
2018-07-26T20:02:17.500Z,99849.98
2018-07-26T20:04:48.513Z,99855.06
2018-07-26T20:07:19.563Z,99855.83
2018-07-26T20:09:51.216Z,99857.42
2018-07-26T20:12:22.566Z,99861.25
2018-07-26T20:14:53.504Z,99862.94
2018-07-26T20:17:24.516Z,99860.55
2018-07-26T20:19:55.514Z,99860.52
2018-07-26T20:22:27.436Z,99863.93
2018-07-26T20:24:58.455Z,99863.63
2018-07-26T20:27:29.521Z,99861.43
2018-07-26T20:30:00.471Z,99865.22
2018-07-26T20:32:31.468Z,99871.38
2018-07-26T20:35:02.475Z,99877.05
2018-07-26T20:37:33.505Z,99875.64
2018-07-26T20:40:04.517Z,99878.06
2018-07-26T20:42:35.501Z,99883.69
2018-07-26T20:45:09.790Z,99882.89
2018-07-26T20:47:40.699Z,99886.31
2018-07-26T20:50:11.597Z,99884.64
2018-07-26T20:52:42.493Z,99884.33
2018-07-26T20:55:13.494Z,99880.91
2018-07-26T20:57:44.483Z,99885.52
2018-07-26T21:00:15.472Z,99886.30
2018-07-26T21:02:46.501Z,99883.57
2018-07-26T21:05:17.542Z,99883.53
2018-07-26T21:07:48.477Z,99884.58
2018-07-26T21:10:19.461Z,99894.41
2018-07-26T21:12:50.536Z,99896.03
2018-07-26T21:15:21.465Z,99898.39
2018-07-26T21:17:52.470Z,99902.22
2018-07-26T21:20:23.522Z,99899.23
2018-07-26T21:22:54.496Z,99904.63
2018-07-26T21:25:25.486Z,99896.98
2018-07-26T21:27:56.495Z,99911.05
2018-07-26T21:30:27.483Z,99910.63
2018-07-26T21:32:58.522Z,99902.73
2018-07-26T21:35:29.528Z,99902.73
2018-07-26T21:38:00.546Z,99911.36
2018-07-26T21:40:31.465Z,99909.41
2018-07-26T21:43:02.493Z,99911.70
2018-07-26T21:45:33.499Z,99913.84
2018-07-26T21:48:04.483Z,99915.59
2018-07-26T21:50:35.465Z,99918.53
2018-07-26T21:53:07.359Z,99918.77
2018-07-26T21:55:38.395Z,99921.05
2018-07-26T21:58:09.454Z,99915.67
2018-07-26T22:00:45.736Z,99918.54
2018-07-26T22:03:16.579Z,99917.61
2018-07-26T22:05:47.525Z,99918.53
2018-07-26T22:08:18.467Z,99919.48
2018-07-26T22:10:50.293Z,99924.99
2018-07-26T22:13:22.295Z,99920.45
2018-07-26T22:15:53.588Z,99918.06
2018-07-26T22:18:24.588Z,99924.91
2018-07-26T22:20:55.523Z,99920.17
2018-07-26T22:23:26.496Z,99925.02
2018-07-26T22:25:57.464Z,99927.65
2018-07-26T22:28:28.500Z,99928.67
2018-07-26T22:30:59.445Z,99924.98
2018-07-26T22:33:30.490Z,99930.66
2018-07-26T22:36:01.497Z,99933.70
2018-07-26T22:38:32.899Z,99931.59
2018-07-26T22:41:03.705Z,99935.82
2018-07-26T22:43:34.611Z,99928.12
2018-07-26T22:46:05.530Z,99931.51
2018-07-26T22:48:36.489Z,99927.09
2018-07-26T22:51:07.498Z,99927.44
2018-07-26T22:53:38.478Z,99927.38
2018-07-26T22:56:09.462Z,99928.38
2018-07-26T22:58:40.453Z,99924.31
2018-07-26T23:01:11.446Z,99920.97
2018-07-26T23:03:42.473Z,99928.94
2018-07-26T23:06:13.470Z,99928.97
2018-07-26T23:08:44.541Z,99921.05
2018-07-26T23:11:15.502Z,99926.33
2018-07-26T23:13:46.589Z,99928.97
2018-07-26T23:16:17.491Z,99928.27
2018-07-26T23:18:48.504Z,99927.96
2018-07-26T23:21:19.476Z,99919.02
2018-07-26T23:23:50.533Z,99924.53
2018-07-26T23:26:21.466Z,99926.61
2018-07-26T23:28:52.560Z,99926.09
2018-07-26T23:31:23.457Z,99930.77
2018-07-26T23:33:54.486Z,99929.97
2018-07-26T23:36:25.492Z,99928.42
2018-07-26T23:38:56.499Z,99930.30
2018-07-26T23:41:27.736Z,99927.88
2018-07-26T23:43:58.573Z,99918.69
2018-07-26T23:46:29.472Z,99924.58
2018-07-26T23:49:00.507Z,99926.52
2018-07-26T23:51:31.637Z,99926.48
2018-07-26T23:54:02.507Z,99918.44
2018-07-26T23:56:33.565Z,99922.02
2018-07-26T23:59:11.631Z,99920.87
